Terminal Aerodrome Forecast
Issued by NWS

Home | Current Version | Previous Version | Graphics & Text | Print | Product List | Glossary On
Versions: 1 2 3 4 5 6 7 8 9 10 11 12 13 14 15 16
973
FTUS41 KCLE 121737
TAFFDY
TAF
KFDY 121737Z 1218/1318 25018G28KT P6SM OVC060
      TEMPO 1220/1221 3SM -SHSN OVC025
     FM122100 28020G30KT 1 1/2SM -SHSN OVC025
      TEMPO 1221/1223 1/2SM SN BLSN OVC012
     FM130100 30018G28KT 3SM -SHSN OVC025
     FM130500 30015G25KT P6SM BKN025
     FM130900 30012G20KT P6SM BKN035=

USA.gov is the U.S. government's official web portal to all federal, state and local government web resources and services.